createdAt,value
2023-12-12T00:04:28.851Z,94762.00
2023-12-12T00:08:37.750Z,94805.00
2023-12-12T00:09:23.806Z,94817.00
2023-12-12T00:10:23.879Z,94815.00
2023-12-12T00:11:23.833Z,94823.00
2023-12-12T00:12:24.705Z,94817.00
2023-12-12T00:15:13.142Z,94811.00
2023-12-12T00:23:54.742Z,94811.00
2023-12-12T00:26:14.914Z,94815.00
2023-12-12T00:27:14.925Z,94811.00
2023-12-12T00:28:14.907Z,94805.00
2023-12-12T00:32:42.126Z,94793.00
2023-12-12T00:33:41.172Z,94790.00
2023-12-12T00:40:29.742Z,94772.00
2023-12-12T00:53:10.837Z,94758.00
2023-12-12T00:54:11.159Z,94760.00
2023-12-12T00:55:10.772Z,94760.00
2023-12-12T00:56:10.684Z,94758.00
2023-12-12T00:58:44.896Z,94756.00
2023-12-12T00:59:31.754Z,94760.00
2023-12-12T01:07:44.937Z,94776.00
2023-12-12T01:10:57.205Z,94776.00
2023-12-12T01:11:45.015Z,94772.00
2023-12-12T01:14:04.936Z,94782.00
2023-12-12T01:15:05.006Z,94784.00
2023-12-12T01:18:17.652Z,94797.00
2023-12-12T01:22:00.306Z,94811.00
2023-12-12T01:23:00.290Z,94815.00
2023-12-12T01:24:00.184Z,94815.00
2023-12-12T01:27:42.133Z,94821.00
2023-12-12T01:30:02.353Z,94815.00
2023-12-12T01:31:03.317Z,94813.00
2023-12-12T01:32:02.362Z,94813.00
2023-12-12T01:33:03.236Z,94811.00
2023-12-12T01:34:02.239Z,94807.00
2023-12-12T01:35:02.250Z,94809.00
2023-12-12T01:39:20.095Z,94825.00
2023-12-12T01:43:25.492Z,94835.00
2023-12-12T01:46:30.349Z,94839.00
2023-12-12T01:47:30.582Z,94843.00
2023-12-12T01:48:30.407Z,94845.00
2023-12-12T01:49:30.428Z,94839.00
2023-12-12T01:50:30.230Z,94839.00
2023-12-12T01:55:35.501Z,94845.00
2023-12-12T01:56:35.406Z,94846.00
2023-12-12T01:57:35.375Z,94839.00
2023-12-12T02:08:34.695Z,94805.00
2023-12-12T02:12:14.788Z,94805.00
2023-12-12T02:13:14.729Z,94803.00
2023-12-12T02:26:28.255Z,94786.00
2023-12-12T02:30:08.397Z,94776.00
2023-12-12T02:31:08.299Z,94774.00
2023-12-12T02:32:08.500Z,94776.00
2023-12-12T02:33:07.540Z,94776.00
2023-12-12T02:34:07.922Z,94776.00
2023-12-12T02:35:07.524Z,94778.00
2023-12-12T02:36:07.412Z,94780.00
2023-12-12T02:39:01.745Z,94788.00
2023-12-12T02:58:03.355Z,94805.00
2023-12-12T03:00:23.381Z,94807.00
2023-12-12T03:05:45.919Z,94797.00
2023-12-12T03:06:45.792Z,94801.00
2023-12-12T03:11:49.950Z,94790.00
2023-12-12T03:14:35.959Z,94797.00
2023-12-12T03:15:35.800Z,94795.00
2023-12-12T03:16:35.878Z,94799.00
2023-12-12T03:18:55.746Z,94807.00
2023-12-12T03:19:56.262Z,94807.00
2023-12-12T03:20:56.138Z,94805.00
2023-12-12T03:21:56.445Z,94807.00
2023-12-12T03:22:55.828Z,94807.00
2023-12-12T03:25:16.155Z,94809.00
2023-12-12T03:26:15.613Z,94805.00
2023-12-12T03:27:15.721Z,94801.00
2023-12-12T03:34:36.290Z,94782.00
2023-12-12T03:35:36.103Z,94778.00
2023-12-12T03:36:36.039Z,94774.00
2023-12-12T03:38:56.534Z,94770.00
2023-12-12T03:39:58.072Z,94776.00
2023-12-12T03:51:14.646Z,94788.00
2023-12-12T03:52:13.486Z,94790.00
2023-12-12T03:53:14.740Z,94791.00
2023-12-12T03:54:13.346Z,94795.00
2023-12-12T03:55:13.378Z,94795.00
2023-12-12T03:56:13.471Z,94791.00
2023-12-12T03:57:13.495Z,94790.00
2023-12-12T03:58:13.330Z,94790.00
2023-12-12T03:59:13.655Z,94782.00
2023-12-12T04:00:13.384Z,94780.00
2023-12-12T04:01:13.536Z,94776.00
2023-12-12T04:02:13.381Z,94782.00
2023-12-12T04:03:13.657Z,94782.00
2023-12-12T04:04:13.654Z,94782.00
2023-12-12T04:05:14.561Z,94778.00
2023-12-12T04:06:13.121Z,94780.00
2023-12-12T04:07:13.269Z,94784.00
2023-12-12T04:08:13.440Z,94786.00
2023-12-12T04:09:13.142Z,94780.00
2023-12-12T04:10:13.336Z,94776.00
2023-12-12T04:11:13.616Z,94768.00
2023-12-12T04:12:13.253Z,94766.00
2023-12-12T04:13:13.589Z,94762.00
2023-12-12T04:14:13.606Z,94760.00
2023-12-12T04:15:13.195Z,94758.00
2023-12-12T04:16:13.558Z,94762.00
2023-12-12T04:18:33.209Z,94766.00
2023-12-12T04:27:08.389Z,94760.00
2023-12-12T04:28:08.218Z,94758.00
2023-12-12T04:33:03.491Z,94760.00
2023-12-12T04:40:20.209Z,94758.00
2023-12-12T04:52:47.916Z,94758.00
2023-12-12T04:53:47.746Z,94758.00
2023-12-12T04:56:08.245Z,94754.00
2023-12-12T05:02:34.468Z,94744.00
2023-12-12T05:05:13.215Z,94741.00
2023-12-12T05:09:34.232Z,94748.00
2023-12-12T05:18:37.280Z,94768.00
2023-12-12T05:22:54.194Z,94770.00
2023-12-12T05:25:15.038Z,94768.00
2023-12-12T05:26:13.263Z,94774.00
2023-12-12T05:27:13.512Z,94770.00
2023-12-12T05:28:13.596Z,94768.00
2023-12-12T05:31:19.452Z,94780.00
2023-12-12T05:34:59.207Z,94790.00
2023-12-12T05:35:59.203Z,94784.00
2023-12-12T05:43:19.037Z,94776.00
2023-12-12T05:44:18.927Z,94774.00
2023-12-12T05:45:19.523Z,94770.00
2023-12-12T05:46:18.771Z,94766.00
2023-12-12T05:47:18.733Z,94764.00
2023-12-12T05:48:19.104Z,94768.00
2023-12-12T05:49:19.199Z,94766.00
2023-12-12T05:50:18.843Z,94766.00
2023-12-12T05:51:18.733Z,94766.00
2023-12-12T05:52:18.937Z,94760.00
2023-12-12T05:53:18.784Z,94762.00
2023-12-12T05:54:18.707Z,94760.00
2023-12-12T05:55:18.913Z,94760.00
2023-12-12T05:56:18.675Z,94758.00
2023-12-12T05:57:19.438Z,94756.00
2023-12-12T05:58:18.726Z,94758.00
2023-12-12T05:59:18.817Z,94760.00
2023-12-12T06:00:18.610Z,94758.00
2023-12-12T06:01:19.273Z,94760.00
2023-12-12T06:02:18.719Z,94762.00
2023-12-12T06:03:18.640Z,94766.00
2023-12-12T06:04:19.203Z,94766.00
2023-12-12T06:05:20.183Z,94766.00
2023-12-12T06:06:18.777Z,94760.00
2023-12-12T06:07:19.224Z,94760.00
2023-12-12T06:08:18.562Z,94760.00
2023-12-12T06:09:18.644Z,94760.00
2023-12-12T06:10:18.609Z,94764.00
2023-12-12T06:11:18.588Z,94768.00
2023-12-12T06:12:18.625Z,94768.00
2023-12-12T06:13:18.723Z,94766.00
2023-12-12T06:14:18.614Z,94758.00
2023-12-12T06:15:19.414Z,94756.00
2023-12-12T06:16:18.984Z,94750.00
2023-12-12T06:17:18.954Z,94748.00
2023-12-12T06:18:18.663Z,94746.00
2023-12-12T06:19:18.702Z,94746.00
2023-12-12T06:20:18.568Z,94754.00
2023-12-12T06:21:19.478Z,94748.00
2023-12-12T06:22:19.025Z,94748.00
2023-12-12T06:23:19.390Z,94746.00
2023-12-12T06:24:19.405Z,94750.00
2023-12-12T06:25:19.505Z,94754.00
2023-12-12T06:26:19.621Z,94756.00
2023-12-12T06:27:20.452Z,94758.00
2023-12-12T06:28:19.550Z,94754.00
2023-12-12T06:29:18.642Z,94756.00
2023-12-12T06:30:18.749Z,94752.00
2023-12-12T06:31:18.837Z,94748.00
2023-12-12T06:32:18.735Z,94746.00
2023-12-12T06:33:18.811Z,94744.00
2023-12-12T06:34:19.540Z,94746.00
2023-12-12T06:35:18.926Z,94744.00
2023-12-12T06:36:20.107Z,94743.00
2023-12-12T06:37:18.716Z,94741.00
2023-12-12T06:38:18.670Z,94739.00
2023-12-12T06:39:18.767Z,94739.00
2023-12-12T06:40:18.725Z,94741.00
2023-12-12T06:41:18.768Z,94737.00
2023-12-12T06:42:21.453Z,94733.00
2023-12-12T06:43:19.444Z,94733.00
2023-12-12T06:44:18.623Z,94735.00
2023-12-12T06:45:18.731Z,94737.00
2023-12-12T06:46:18.757Z,94739.00
2023-12-12T06:47:18.594Z,94737.00
2023-12-12T06:48:18.702Z,94737.00
2023-12-12T06:49:19.430Z,94737.00
2023-12-12T06:50:19.439Z,94737.00
2023-12-12T06:51:19.588Z,94731.00
2023-12-12T06:52:20.522Z,94729.00
2023-12-12T06:53:18.572Z,94729.00
2023-12-12T06:54:18.533Z,94729.00
2023-12-12T06:55:18.827Z,94725.00
2023-12-12T06:56:18.770Z,94727.00
2023-12-12T06:57:19.715Z,94723.00
2023-12-12T06:58:19.053Z,94721.00
2023-12-12T06:59:19.025Z,94719.00
2023-12-12T07:00:18.419Z,94719.00
2023-12-12T07:01:20.519Z,94721.00
2023-12-12T07:02:18.751Z,94715.00
2023-12-12T07:03:18.482Z,94709.00
2023-12-12T07:04:18.617Z,94707.00
2023-12-12T07:05:18.665Z,94701.00
2023-12-12T07:06:19.567Z,94703.00
2023-12-12T07:07:18.612Z,94701.00
2023-12-12T07:08:18.637Z,94695.00
2023-12-12T07:09:18.649Z,94695.00
2023-12-12T07:10:18.721Z,94691.00
2023-12-12T07:11:18.392Z,94693.00
2023-12-12T07:12:18.468Z,94691.00
2023-12-12T07:13:18.694Z,94695.00
2023-12-12T07:14:18.890Z,94701.00
2023-12-12T07:15:18.534Z,94707.00
2023-12-12T07:16:19.831Z,94713.00
2023-12-12T07:17:18.728Z,94717.00
2023-12-12T07:18:18.753Z,94719.00
2023-12-12T07:19:18.837Z,94719.00
2023-12-12T07:20:20.007Z,94719.00
2023-12-12T07:21:19.487Z,94721.00
2023-12-12T07:23:38.543Z,94725.00
2023-12-12T07:24:38.707Z,94721.00
2023-12-12T07:25:38.602Z,94719.00
2023-12-12T07:26:38.681Z,94717.00
2023-12-12T07:27:38.480Z,94717.00
2023-12-12T07:31:40.949Z,94721.00
2023-12-12T07:32:40.673Z,94727.00
2023-12-12T07:33:40.611Z,94729.00
2023-12-12T07:34:40.537Z,94727.00
2023-12-12T07:35:40.480Z,94725.00
2023-12-12T07:36:40.465Z,94727.00
2023-12-12T07:39:01.043Z,94739.00
2023-12-12T07:40:03.120Z,94739.00
2023-12-12T07:41:05.251Z,94739.00
2023-12-12T07:45:10.409Z,94746.00
2023-12-12T07:57:01.610Z,94729.00
2023-12-12T07:58:01.339Z,94725.00
2023-12-12T08:01:12.621Z,94731.00
2023-12-12T08:02:12.304Z,94731.00
2023-12-12T08:03:12.391Z,94735.00
2023-12-12T08:04:12.325Z,94735.00
2023-12-12T08:07:10.881Z,94737.00
2023-12-12T08:08:10.346Z,94741.00
2023-12-12T08:12:50.229Z,94744.00
2023-12-12T08:13:52.886Z,94744.00
2023-12-12T08:14:50.827Z,94744.00
2023-12-12T08:15:49.819Z,94741.00
2023-12-12T08:16:49.764Z,94735.00
2023-12-12T08:17:49.798Z,94735.00
2023-12-12T08:24:05.130Z,94743.00
2023-12-12T08:25:04.465Z,94741.00
2023-12-12T08:26:04.453Z,94737.00
2023-12-12T08:27:04.473Z,94735.00
2023-12-12T08:28:04.535Z,94731.00
2023-12-12T08:29:04.376Z,94729.00
2023-12-12T08:30:04.456Z,94727.00
2023-12-12T08:32:55.033Z,94721.00
2023-12-12T08:33:54.088Z,94721.00
2023-12-12T08:34:53.846Z,94725.00
2023-12-12T08:35:53.669Z,94727.00
2023-12-12T08:46:16.416Z,94727.00
2023-12-12T08:47:15.451Z,94721.00
2023-12-12T08:48:15.337Z,94715.00
2023-12-12T08:49:15.351Z,94715.00
2023-12-12T08:55:32.654Z,94719.00
2023-12-12T08:56:30.466Z,94721.00
2023-12-12T08:57:31.014Z,94721.00
2023-12-12T08:58:30.740Z,94721.00
2023-12-12T08:59:33.833Z,94721.00
2023-12-12T09:02:32.133Z,94727.00
2023-12-12T09:03:29.539Z,94723.00
2023-12-12T09:04:29.642Z,94721.00
2023-12-12T09:05:29.641Z,94715.00
2023-12-12T09:06:28.854Z,94713.00
2023-12-12T09:13:02.281Z,94727.00
2023-12-12T09:14:10.851Z,94725.00
2023-12-12T09:33:27.128Z,94695.00
2023-12-12T09:42:03.189Z,94689.00
2023-12-12T09:43:03.662Z,94688.00
2023-12-12T09:44:04.085Z,94693.00
2023-12-12T09:45:01.532Z,94695.00
2023-12-12T09:46:03.113Z,94695.00
2023-12-12T09:47:02.374Z,94693.00
2023-12-12T09:48:05.647Z,94693.00
2023-12-12T09:49:02.481Z,94689.00
2023-12-12T10:08:05.088Z,94662.00
2023-12-12T10:08:59.293Z,94660.00
2023-12-12T10:09:57.681Z,94656.00
2023-12-12T10:10:57.931Z,94648.00
2023-12-12T10:11:57.412Z,94644.00
2023-12-12T10:12:57.526Z,94642.00
2023-12-12T10:36:00.729Z,94599.00
2023-12-12T10:36:59.864Z,94593.00
2023-12-12T10:38:04.816Z,94586.00
2023-12-12T10:38:59.626Z,94582.00
2023-12-12T10:40:02.444Z,94574.00
2023-12-12T10:49:02.622Z,94574.00
2023-12-12T10:50:03.374Z,94572.00
2023-12-12T10:51:00.686Z,94572.00
2023-12-12T10:52:00.583Z,94570.00
2023-12-12T10:53:02.335Z,94566.00
2023-12-12T10:54:02.568Z,94566.00
2023-12-12T10:55:01.584Z,94564.00
2023-12-12T10:56:08.921Z,94558.00
2023-12-12T10:57:01.510Z,94558.00
2023-12-12T10:58:00.577Z,94552.00
2023-12-12T10:59:55.448Z,94550.00
2023-12-12T11:00:09.832Z,94546.00
2023-12-12T11:01:02.090Z,94542.00
2023-12-12T11:02:00.551Z,94538.00
2023-12-12T11:03:00.610Z,94529.00
2023-12-12T11:04:06.606Z,94527.00
2023-12-12T11:05:06.960Z,94527.00
2023-12-12T11:06:05.320Z,94525.00
2023-12-12T11:07:12.629Z,94517.00
2023-12-12T11:09:59.947Z,94521.00
2023-12-12T11:12:18.655Z,94511.00
2023-12-12T11:13:18.470Z,94509.00
2023-12-12T11:14:21.481Z,94501.00
2023-12-12T11:15:23.353Z,94493.00
2023-12-12T11:16:25.238Z,94491.00
2023-12-12T11:17:18.238Z,94489.00
2023-12-12T11:18:20.650Z,94487.00
2023-12-12T11:19:18.376Z,94489.00
2023-12-12T11:20:18.630Z,94485.00
2023-12-12T11:21:24.162Z,94483.00
2023-12-12T11:22:22.778Z,94483.00
2023-12-12T11:23:28.220Z,94476.00
2023-12-12T11:24:23.998Z,94476.00
2023-12-12T11:25:18.378Z,94468.00
2023-12-12T11:26:18.911Z,94470.00
2023-12-12T11:27:18.367Z,94470.00
2023-12-12T11:31:46.484Z,94466.00
2023-12-12T11:32:37.241Z,94464.00
2023-12-12T11:33:37.077Z,94464.00
2023-12-12T11:34:36.853Z,94468.00
2023-12-12T11:35:39.744Z,94466.00
2023-12-12T11:36:39.623Z,94470.00
2023-12-12T11:37:37.051Z,94466.00
2023-12-12T11:38:36.926Z,94466.00
2023-12-12T11:54:03.173Z,94446.00
2023-12-12T11:55:00.747Z,94440.00
2023-12-12T11:56:05.021Z,94440.00
2023-12-12T11:57:00.073Z,94446.00
2023-12-12T11:58:00.032Z,94450.00
2023-12-12T11:59:00.210Z,94460.00
2023-12-12T12:00:00.063Z,94470.00
2023-12-12T12:10:04.754Z,94454.00
2023-12-12T12:10:58.865Z,94454.00
2023-12-12T12:11:58.466Z,94452.00
2023-12-12T12:13:08.352Z,94448.00
2023-12-12T12:14:00.704Z,94448.00
2023-12-12T12:14:57.590Z,94446.00
2023-12-12T12:15:57.709Z,94440.00
2023-12-12T12:16:58.829Z,94434.00
2023-12-12T12:17:57.728Z,94431.00
2023-12-12T12:20:50.616Z,94415.00
2023-12-12T12:21:47.296Z,94409.00
2023-12-12T12:22:47.054Z,94409.00
2023-12-12T12:25:47.354Z,94407.00
2023-12-12T12:26:47.534Z,94401.00
2023-12-12T12:27:46.819Z,94401.00
2023-12-12T12:28:46.858Z,94401.00
2023-12-12T12:29:46.840Z,94403.00
2023-12-12T12:30:49.849Z,94401.00
2023-12-12T12:31:47.082Z,94393.00
2023-12-12T12:32:47.573Z,94387.00
2023-12-12T12:33:46.873Z,94383.00
2023-12-12T12:34:46.814Z,94385.00
2023-12-12T12:35:46.868Z,94389.00
2023-12-12T12:36:46.870Z,94389.00
2023-12-12T12:37:46.899Z,94391.00
2023-12-12T12:38:47.570Z,94389.00
2023-12-12T12:39:46.815Z,94387.00
2023-12-12T12:40:47.008Z,94387.00
2023-12-12T12:41:46.709Z,94385.00
2023-12-12T12:42:49.015Z,94379.00
2023-12-12T12:43:47.753Z,94376.00
2023-12-12T12:44:46.842Z,94370.00
2023-12-12T12:45:47.055Z,94370.00
2023-12-12T13:06:34.708Z,94331.00
2023-12-12T13:07:28.165Z,94327.00
2023-12-12T13:08:28.047Z,94321.00
2023-12-12T13:09:28.652Z,94323.00
2023-12-12T13:10:39.537Z,94332.00
2023-12-12T13:11:28.898Z,94338.00
2023-12-12T13:12:27.898Z,94342.00
2023-12-12T13:13:28.865Z,94340.00
2023-12-12T13:14:27.690Z,94334.00
2023-12-12T13:15:27.775Z,94331.00
2023-12-12T13:16:27.719Z,94327.00
2023-12-12T13:17:28.885Z,94321.00
2023-12-12T13:18:27.689Z,94323.00
2023-12-12T13:33:30.928Z,94309.00
2023-12-12T13:34:27.422Z,94309.00
2023-12-12T13:35:35.658Z,94307.00
2023-12-12T13:36:28.369Z,94309.00
2023-12-12T13:37:27.273Z,94305.00
2023-12-12T13:38:28.582Z,94309.00
2023-12-12T13:39:27.349Z,94303.00
2023-12-12T13:40:27.341Z,94303.00
2023-12-12T13:41:27.290Z,94295.00
2023-12-12T13:42:27.324Z,94295.00
2023-12-12T13:43:27.294Z,94287.00
2023-12-12T13:44:27.356Z,94281.00
2023-12-12T13:45:27.293Z,94276.00
2023-12-12T13:46:27.537Z,94270.00
2023-12-12T13:49:02.513Z,94268.00
2023-12-12T13:49:48.041Z,94270.00
2023-12-12T13:50:46.940Z,94272.00
2023-12-12T13:51:48.230Z,94272.00
2023-12-12T13:52:46.964Z,94270.00
2023-12-12T13:55:51.110Z,94266.00
2023-12-12T14:01:14.260Z,94260.00
2023-12-12T14:02:12.223Z,94268.00
2023-12-12T14:03:06.371Z,94272.00
2023-12-12T14:04:06.431Z,94274.00
2023-12-12T14:05:07.148Z,94277.00
2023-12-12T14:06:06.957Z,94279.00
2023-12-12T14:09:27.041Z,94279.00
2023-12-12T14:18:15.418Z,94293.00
2023-12-12T14:21:54.843Z,94289.00
2023-12-12T14:23:01.367Z,94287.00
2023-12-12T14:23:55.646Z,94287.00
2023-12-12T14:35:33.269Z,94270.00
2023-12-12T14:36:39.794Z,94266.00
2023-12-12T14:37:35.552Z,94262.00
2023-12-12T14:38:33.002Z,94254.00
2023-12-12T14:55:47.863Z,94274.00
2023-12-12T14:59:01.543Z,94295.00
2023-12-12T14:59:52.568Z,94295.00
2023-12-12T15:00:53.075Z,94289.00
2023-12-12T15:01:53.050Z,94281.00
2023-12-12T15:04:12.798Z,94279.00
2023-12-12T15:05:17.157Z,94285.00
2023-12-12T15:06:29.744Z,94285.00
2023-12-12T15:07:13.126Z,94285.00
2023-12-12T15:08:12.130Z,94281.00
2023-12-12T15:10:35.709Z,94270.00
2023-12-12T15:11:31.884Z,94268.00
2023-12-12T15:12:32.656Z,94268.00
2023-12-12T15:17:30.352Z,94270.00
2023-12-12T15:18:23.107Z,94268.00
2023-12-12T15:22:49.957Z,94266.00
2023-12-12T15:23:39.528Z,94270.00
2023-12-12T15:24:40.045Z,94266.00
2023-12-12T15:26:05.562Z,94264.00
2023-12-12T15:26:48.085Z,94258.00
2023-12-12T15:27:41.058Z,94250.00
2023-12-12T15:33:16.221Z,94240.00
2023-12-12T15:34:15.279Z,94244.00
2023-12-12T15:35:14.940Z,94246.00
2023-12-12T15:36:23.041Z,94252.00
2023-12-12T15:37:15.880Z,94256.00
2023-12-12T15:41:13.753Z,94244.00
2023-12-12T15:42:12.873Z,94250.00
2023-12-12T15:43:13.963Z,94256.00
2023-12-12T15:44:15.091Z,94268.00
2023-12-12T15:47:06.704Z,94266.00
2023-12-12T15:52:57.851Z,94236.00
2023-12-12T15:53:44.125Z,94242.00
2023-12-12T15:54:44.310Z,94244.00
2023-12-12T15:55:44.473Z,94246.00
2023-12-12T15:56:53.246Z,94238.00
2023-12-12T15:57:45.574Z,94238.00
2023-12-12T15:58:46.244Z,94238.00
2023-12-12T15:59:44.304Z,94234.00
2023-12-12T16:00:44.350Z,94228.00
2023-12-12T16:10:06.885Z,94223.00
2023-12-12T16:10:59.966Z,94223.00
2023-12-12T16:11:59.994Z,94215.00
2023-12-12T16:23:23.231Z,94207.00
2023-12-12T16:28:26.807Z,94199.00
2023-12-12T16:29:26.784Z,94195.00
2023-12-12T16:44:05.579Z,94199.00
2023-12-12T16:45:05.011Z,94201.00
2023-12-12T16:47:50.598Z,94189.00
2023-12-12T16:48:50.374Z,94189.00
2023-12-12T16:53:23.110Z,94189.00
2023-12-12T16:58:12.739Z,94168.00
2023-12-12T17:01:06.915Z,94158.00
2023-12-12T17:02:06.277Z,94162.00
2023-12-12T17:03:06.264Z,94164.00
2023-12-12T17:05:48.360Z,94166.00
2023-12-12T17:11:00.037Z,94170.00
2023-12-12T17:12:02.363Z,94164.00
2023-12-12T17:16:31.990Z,94175.00
2023-12-12T17:17:29.952Z,94179.00
2023-12-12T17:18:31.118Z,94179.00
2023-12-12T17:19:30.783Z,94181.00
2023-12-12T17:20:29.812Z,94179.00
2023-12-12T17:32:15.381Z,94223.00
2023-12-12T17:33:14.668Z,94219.00
2023-12-12T17:34:14.894Z,94217.00
2023-12-12T17:35:14.817Z,94217.00
2023-12-12T17:36:15.985Z,94219.00
2023-12-12T17:39:17.550Z,94221.00
2023-12-12T17:43:51.588Z,94215.00
2023-12-12T17:49:31.304Z,94217.00
2023-12-12T17:53:02.910Z,94217.00
2023-12-12T17:53:58.799Z,94217.00
2023-12-12T17:55:00.754Z,94213.00
2023-12-12T17:55:59.025Z,94205.00
2023-12-12T17:56:58.770Z,94199.00
2023-12-12T17:57:58.689Z,94195.00
2023-12-12T17:59:01.220Z,94187.00
2023-12-12T17:59:58.791Z,94189.00
2023-12-12T18:00:58.911Z,94193.00
2023-12-12T18:01:58.881Z,94195.00
2023-12-12T18:02:58.618Z,94195.00
2023-12-12T18:03:58.751Z,94193.00
2023-12-12T18:04:58.908Z,94191.00
2023-12-12T18:05:59.389Z,94191.00
2023-12-12T18:15:44.530Z,94183.00
2023-12-12T18:16:44.064Z,94181.00
2023-12-12T18:17:43.849Z,94177.00
2023-12-12T18:20:04.654Z,94179.00
2023-12-12T18:21:04.109Z,94179.00
2023-12-12T18:22:04.305Z,94179.00
2023-12-12T18:23:04.492Z,94185.00
2023-12-12T18:24:04.763Z,94181.00
2023-12-12T18:25:04.013Z,94183.00
2023-12-12T18:26:03.977Z,94181.00
2023-12-12T18:27:03.995Z,94177.00
2023-12-12T18:34:42.178Z,94154.00
2023-12-12T18:39:44.469Z,94146.00
2023-12-12T18:40:44.254Z,94146.00
2023-12-12T18:41:44.162Z,94144.00
2023-12-12T18:42:45.395Z,94140.00
2023-12-12T18:43:44.878Z,94142.00
2023-12-12T18:44:44.368Z,94142.00
2023-12-12T18:50:20.736Z,94142.00
2023-12-12T18:51:14.103Z,94140.00
2023-12-12T18:53:34.532Z,94138.00
2023-12-12T18:58:43.633Z,94142.00
2023-12-12T18:59:33.199Z,94142.00
2023-12-12T19:00:33.450Z,94146.00
2023-12-12T19:01:33.502Z,94146.00
2023-12-12T19:06:02.127Z,94154.00
2023-12-12T19:12:03.459Z,94152.00
2023-12-12T19:22:49.872Z,94166.00
2023-12-12T19:23:38.685Z,94164.00
2023-12-12T19:43:15.045Z,94120.00
2023-12-12T19:44:14.680Z,94117.00
2023-12-12T19:46:44.951Z,94107.00
2023-12-12T19:47:40.870Z,94105.00
2023-12-12T19:48:40.070Z,94107.00
2023-12-12T19:55:43.058Z,94103.00
2023-12-12T19:59:54.334Z,94087.00
2023-12-12T20:05:37.100Z,94068.00
2023-12-12T20:06:36.738Z,94064.00
2023-12-12T20:07:37.007Z,94064.00
2023-12-12T20:08:36.550Z,94064.00
2023-12-12T20:09:36.587Z,94066.00
2023-12-12T20:10:37.997Z,94068.00
2023-12-12T20:11:37.175Z,94066.00
2023-12-12T20:12:36.468Z,94072.00
2023-12-12T20:22:28.928Z,94070.00
2023-12-12T20:26:27.919Z,94060.00
2023-12-12T20:32:10.333Z,94044.00
2023-12-12T20:36:41.448Z,94038.00
2023-12-12T20:37:41.281Z,94040.00
2023-12-12T20:40:00.990Z,94038.00
2023-12-12T20:41:00.961Z,94038.00
2023-12-12T20:42:01.661Z,94046.00
2023-12-12T20:46:29.950Z,94044.00
2023-12-12T20:47:30.969Z,94042.00
2023-12-12T20:50:54.089Z,94046.00
2023-12-12T20:51:46.806Z,94048.00
2023-12-12T20:52:45.447Z,94052.00
2023-12-12T20:57:16.004Z,94042.00
2023-12-12T21:04:47.416Z,94054.00
2023-12-12T21:09:35.653Z,94046.00
2023-12-12T21:10:35.245Z,94042.00
2023-12-12T21:14:51.204Z,94036.00
2023-12-12T21:15:42.422Z,94034.00
2023-12-12T21:16:43.654Z,94026.00
2023-12-12T21:19:30.801Z,94019.00
2023-12-12T21:20:30.224Z,94020.00
2023-12-12T21:21:30.330Z,94017.00
2023-12-12T21:25:11.368Z,94013.00
2023-12-12T21:26:12.140Z,94013.00
2023-12-12T21:31:10.568Z,94007.00
2023-12-12T21:32:10.560Z,94003.00
2023-12-12T21:33:10.904Z,94003.00
2023-12-12T21:34:10.581Z,94005.00
2023-12-12T21:36:30.402Z,94001.00
2023-12-12T21:37:30.694Z,94003.00
2023-12-12T21:46:43.380Z,93987.00
2023-12-12T21:47:42.904Z,93985.00
2023-12-12T21:52:54.240Z,93981.00
2023-12-12T22:05:46.093Z,93985.00
2023-12-12T22:17:06.841Z,93997.00
2023-12-12T22:18:06.818Z,93999.00
2023-12-12T22:19:06.797Z,93997.00
2023-12-12T22:24:08.215Z,93987.00
2023-12-12T22:37:56.652Z,93989.00
2023-12-12T22:38:59.495Z,93987.00
2023-12-12T22:39:56.427Z,93991.00
2023-12-12T22:43:40.887Z,94003.00
2023-12-12T22:46:34.389Z,94015.00
2023-12-12T22:47:34.483Z,94013.00
2023-12-12T22:48:34.375Z,94013.00
2023-12-12T22:49:34.768Z,94007.00
2023-12-12T22:50:36.399Z,94005.00
2023-12-12T22:54:53.365Z,94007.00
2023-12-12T22:55:53.860Z,94003.00
2023-12-12T23:02:55.877Z,94005.00
2023-12-12T23:07:03.822Z,93995.00
2023-12-12T23:13:12.781Z,93985.00
2023-12-12T23:15:56.732Z,93975.00
2023-12-12T23:20:47.038Z,93981.00
2023-12-12T23:30:41.574Z,93979.00
2023-12-12T23:31:29.350Z,93979.00
2023-12-12T23:33:49.852Z,93971.00
2023-12-12T23:36:09.040Z,93973.00
2023-12-12T23:40:51.050Z,93962.00
2023-12-12T23:41:50.189Z,93960.00
2023-12-12T23:42:50.235Z,93960.00
2023-12-12T23:46:08.933Z,93960.00
2023-12-12T23:46:56.560Z,93962.00
2023-12-12T23:49:24.342Z,93958.00
2023-12-12T23:52:08.538Z,93962.00
2023-12-12T23:54:38.089Z,93964.00
2023-12-12T23:55:37.498Z,93960.00
